sensor_id;sensor_type;location;lat;lon;timestamp;temperature;humidity
12872;DHT22;6504;53.766;9.626;2023-09-19T00:01:08;17.50;99.90
12872;DHT22;6504;53.766;9.626;2023-09-19T00:03:40;17.50;99.90
12872;DHT22;6504;53.766;9.626;2023-09-19T00:06:09;17.50;99.90
12872;DHT22;6504;53.766;9.626;2023-09-19T00:08:40;17.50;99.90
12872;DHT22;6504;53.766;9.626;2023-09-19T00:11:10;17.50;99.90
12872;DHT22;6504;53.766;9.626;2023-09-19T00:13:38;17.50;99.90
12872;DHT22;6504;53.766;9.626;2023-09-19T00:16:09;17.40;99.90
12872;DHT22;6504;53.766;9.626;2023-09-19T00:18:40;17.40;99.90
12872;DHT22;6504;53.766;9.626;2023-09-19T00:21:09;17.40;99.90
12872;DHT22;6504;53.766;9.626;2023-09-19T00:23:37;17.30;99.90
12872;DHT22;6504;53.766;9.626;2023-09-19T00:26:07;17.30;99.90
12872;DHT22;6504;53.766;9.626;2023-09-19T00:28:35;17.30;99.90
12872;DHT22;6504;53.766;9.626;2023-09-19T00:31:03;17.30;99.90
12872;DHT22;6504;53.766;9.626;2023-09-19T00:33:31;17.20;99.90
12872;DHT22;6504;53.766;9.626;2023-09-19T00:36:02;17.20;99.90
12872;DHT22;6504;53.766;9.626;2023-09-19T00:38:32;17.20;99.90
12872;DHT22;6504;53.766;9.626;2023-09-19T00:41:00;17.20;99.90
12872;DHT22;6504;53.766;9.626;2023-09-19T00:43:28;17.20;99.90
12872;DHT22;6504;53.766;9.626;2023-09-19T00:45:57;17.20;99.90
12872;DHT22;6504;53.766;9.626;2023-09-19T00:48:27;17.20;99.90
12872;DHT22;6504;53.766;9.626;2023-09-19T00:50:57;17.10;99.90
12872;DHT22;6504;53.766;9.626;2023-09-19T00:53:28;17.10;99.90
12872;DHT22;6504;53.766;9.626;2023-09-19T00:55:58;17.10;99.90
12872;DHT22;6504;53.766;9.626;2023-09-19T00:58:26;17.10;99.90
12872;DHT22;6504;53.766;9.626;2023-09-19T01:00:59;17.10;99.90
12872;DHT22;6504;53.766;9.626;2023-09-19T01:03:27;17.10;99.90
12872;DHT22;6504;53.766;9.626;2023-09-19T01:05:56;17.10;99.90
12872;DHT22;6504;53.766;9.626;2023-09-19T01:08:24;17.10;99.90
12872;DHT22;6504;53.766;9.626;2023-09-19T01:11:00;17.10;99.90
12872;DHT22;6504;53.766;9.626;2023-09-19T01:13:37;17.10;99.90
12872;DHT22;6504;53.766;9.626;2023-09-19T01:16:13;17.10;99.90
12872;DHT22;6504;53.766;9.626;2023-09-19T01:18:48;17.00;99.90
12872;DHT22;6504;53.766;9.626;2023-09-19T01:21:26;17.00;99.90
12872;DHT22;6504;53.766;9.626;2023-09-19T01:24:16;17.00;99.90
12872;DHT22;6504;53.766;9.626;2023-09-19T01:27:10;17.00;99.90
12872;DHT22;6504;53.766;9.626;2023-09-19T01:29:46;17.00;99.90
12872;DHT22;6504;53.766;9.626;2023-09-19T01:32:18;17.00;99.90
12872;DHT22;6504;53.766;9.626;2023-09-19T01:34:50;16.90;99.90
12872;DHT22;6504;53.766;9.626;2023-09-19T01:37:21;16.90;99.90
12872;DHT22;6504;53.766;9.626;2023-09-19T01:39:55;16.80;99.90
12872;DHT22;6504;53.766;9.626;2023-09-19T01:42:31;16.80;99.90
12872;DHT22;6504;53.766;9.626;2023-09-19T01:45:08;16.80;99.90
12872;DHT22;6504;53.766;9.626;2023-09-19T01:47:48;16.80;99.90
12872;DHT22;6504;53.766;9.626;2023-09-19T01:50:22;16.80;99.90
12872;DHT22;6504;53.766;9.626;2023-09-19T01:52:57;16.70;99.90
12872;DHT22;6504;53.766;9.626;2023-09-19T01:55:29;16.70;99.90
12872;DHT22;6504;53.766;9.626;2023-09-19T01:58:03;16.70;99.90
12872;DHT22;6504;53.766;9.626;2023-09-19T02:00:37;16.60;99.90
12872;DHT22;6504;53.766;9.626;2023-09-19T02:03:08;16.60;99.90
12872;DHT22;6504;53.766;9.626;2023-09-19T02:05:37;16.50;99.90
12872;DHT22;6504;53.766;9.626;2023-09-19T02:08:06;16.50;99.90
12872;DHT22;6504;53.766;9.626;2023-09-19T02:10:35;16.50;99.90
12872;DHT22;6504;53.766;9.626;2023-09-19T02:13:04;16.50;99.90
12872;DHT22;6504;53.766;9.626;2023-09-19T02:15:33;16.50;99.90
12872;DHT22;6504;53.766;9.626;2023-09-19T02:18:01;16.50;99.90
12872;DHT22;6504;53.766;9.626;2023-09-19T02:20:31;16.40;99.90
12872;DHT22;6504;53.766;9.626;2023-09-19T02:23:00;16.40;99.90
12872;DHT22;6504;53.766;9.626;2023-09-19T02:25:29;16.40;99.90
12872;DHT22;6504;53.766;9.626;2023-09-19T02:27:57;16.40;99.90
12872;DHT22;6504;53.766;9.626;2023-09-19T02:30:28;16.40;99.90
12872;DHT22;6504;53.766;9.626;2023-09-19T02:32:56;16.40;99.90
12872;DHT22;6504;53.766;9.626;2023-09-19T02:35:24;16.40;99.90
12872;DHT22;6504;53.766;9.626;2023-09-19T02:37:54;16.40;99.90
12872;DHT22;6504;53.766;9.626;2023-09-19T02:40:22;16.40;99.90
12872;DHT22;6504;53.766;9.626;2023-09-19T02:42:54;16.40;99.90
12872;DHT22;6504;53.766;9.626;2023-09-19T02:45:25;16.40;99.90
12872;DHT22;6504;53.766;9.626;2023-09-19T02:47:54;16.30;99.90
12872;DHT22;6504;53.766;9.626;2023-09-19T02:50:22;16.30;99.90
12872;DHT22;6504;53.766;9.626;2023-09-19T02:52:50;16.30;99.90
12872;DHT22;6504;53.766;9.626;2023-09-19T02:55:20;16.30;99.90
12872;DHT22;6504;53.766;9.626;2023-09-19T02:57:50;16.20;99.90
12872;DHT22;6504;53.766;9.626;2023-09-19T03:00:19;16.20;99.90
12872;DHT22;6504;53.766;9.626;2023-09-19T03:02:49;16.20;99.90
12872;DHT22;6504;53.766;9.626;2023-09-19T03:05:17;16.20;99.90
12872;DHT22;6504;53.766;9.626;2023-09-19T03:07:46;16.20;99.90
12872;DHT22;6504;53.766;9.626;2023-09-19T03:10:17;16.20;99.90
12872;DHT22;6504;53.766;9.626;2023-09-19T03:12:47;16.20;99.90
12872;DHT22;6504;53.766;9.626;2023-09-19T03:15:16;16.10;99.90
12872;DHT22;6504;53.766;9.626;2023-09-19T03:17:47;16.10;99.90
12872;DHT22;6504;53.766;9.626;2023-09-19T03:20:15;16.00;99.90
12872;DHT22;6504;53.766;9.626;2023-09-19T03:22:44;16.00;99.90
12872;DHT22;6504;53.766;9.626;2023-09-19T03:25:13;16.00;99.90
12872;DHT22;6504;53.766;9.626;2023-09-19T03:27:42;15.90;99.90
12872;DHT22;6504;53.766;9.626;2023-09-19T03:30:11;15.90;99.90
12872;DHT22;6504;53.766;9.626;2023-09-19T03:32:44;15.90;99.90
12872;DHT22;6504;53.766;9.626;2023-09-19T03:35:13;15.80;99.90
12872;DHT22;6504;53.766;9.626;2023-09-19T03:37:41;15.80;99.90
12872;DHT22;6504;53.766;9.626;2023-09-19T03:40:10;15.80;99.90
12872;DHT22;6504;53.766;9.626;2023-09-19T03:42:39;15.80;99.90
12872;DHT22;6504;53.766;9.626;2023-09-19T03:45:07;15.80;99.90
12872;DHT22;6504;53.766;9.626;2023-09-19T03:47:40;15.80;99.90
12872;DHT22;6504;53.766;9.626;2023-09-19T03:50:09;15.70;99.90
12872;DHT22;6504;53.766;9.626;2023-09-19T03:52:38;15.70;99.90
12872;DHT22;6504;53.766;9.626;2023-09-19T03:55:07;15.70;99.90
12872;DHT22;6504;53.766;9.626;2023-09-19T03:57:36;15.60;99.90
12872;DHT22;6504;53.766;9.626;2023-09-19T04:00:05;15.60;99.90
12872;DHT22;6504;53.766;9.626;2023-09-19T04:02:40;15.50;99.90
12872;DHT22;6504;53.766;9.626;2023-09-19T04:05:08;15.50;99.90
12872;DHT22;6504;53.766;9.626;2023-09-19T04:07:38;15.40;99.90
12872;DHT22;6504;53.766;9.626;2023-09-19T04:10:06;15.40;99.90
12872;DHT22;6504;53.766;9.626;2023-09-19T04:12:38;15.40;99.90
12872;DHT22;6504;53.766;9.626;2023-09-19T04:15:07;15.40;99.90
12872;DHT22;6504;53.766;9.626;2023-09-19T04:17:35;15.30;99.90
12872;DHT22;6504;53.766;9.626;2023-09-19T04:20:06;15.30;99.90
12872;DHT22;6504;53.766;9.626;2023-09-19T04:22:34;15.20;99.90
12872;DHT22;6504;53.766;9.626;2023-09-19T04:25:03;15.20;99.90
12872;DHT22;6504;53.766;9.626;2023-09-19T04:27:33;15.10;99.90
12872;DHT22;6504;53.766;9.626;2023-09-19T04:30:01;15.10;99.90
12872;DHT22;6504;53.766;9.626;2023-09-19T04:32:37;15.10;99.90
12872;DHT22;6504;53.766;9.626;2023-09-19T04:35:09;15.10;99.90
12872;DHT22;6504;53.766;9.626;2023-09-19T04:37:38;15.10;99.90
12872;DHT22;6504;53.766;9.626;2023-09-19T04:40:08;15.10;99.90
12872;DHT22;6504;53.766;9.626;2023-09-19T04:42:40;15.10;99.90
12872;DHT22;6504;53.766;9.626;2023-09-19T04:45:09;15.10;99.90
12872;DHT22;6504;53.766;9.626;2023-09-19T04:47:38;15.10;99.90
12872;DHT22;6504;53.766;9.626;2023-09-19T04:50:09;15.10;99.90
12872;DHT22;6504;53.766;9.626;2023-09-19T04:52:41;15.10;99.90
12872;DHT22;6504;53.766;9.626;2023-09-19T04:55:11;15.10;99.90
12872;DHT22;6504;53.766;9.626;2023-09-19T04:57:43;15.10;99.90
12872;DHT22;6504;53.766;9.626;2023-09-19T05:00:13;15.10;99.90
12872;DHT22;6504;53.766;9.626;2023-09-19T05:02:41;15.10;99.90
12872;DHT22;6504;53.766;9.626;2023-09-19T05:05:11;15.10;99.90
12872;DHT22;6504;53.766;9.626;2023-09-19T05:07:41;15.10;99.90
12872;DHT22;6504;53.766;9.626;2023-09-19T05:10:10;15.00;99.90
12872;DHT22;6504;53.766;9.626;2023-09-19T05:12:39;15.00;99.90
12872;DHT22;6504;53.766;9.626;2023-09-19T05:15:08;15.00;99.90
12872;DHT22;6504;53.766;9.626;2023-09-19T05:17:36;15.00;99.90
12872;DHT22;6504;53.766;9.626;2023-09-19T05:20:06;15.00;99.90
12872;DHT22;6504;53.766;9.626;2023-09-19T05:22:57;15.00;99.90
12872;DHT22;6504;53.766;9.626;2023-09-19T05:25:26;15.00;99.90
12872;DHT22;6504;53.766;9.626;2023-09-19T05:27:57;15.00;99.90
12872;DHT22;6504;53.766;9.626;2023-09-19T05:30:26;15.00;99.90
12872;DHT22;6504;53.766;9.626;2023-09-19T05:32:55;15.00;99.90
12872;DHT22;6504;53.766;9.626;2023-09-19T05:35:24;15.00;99.90
12872;DHT22;6504;53.766;9.626;2023-09-19T05:37:54;15.00;99.90
12872;DHT22;6504;53.766;9.626;2023-09-19T05:40:22;15.00;99.90
12872;DHT22;6504;53.766;9.626;2023-09-19T05:42:51;15.00;99.90
12872;DHT22;6504;53.766;9.626;2023-09-19T05:45:19;15.00;99.90
12872;DHT22;6504;53.766;9.626;2023-09-19T05:47:49;15.00;99.90
12872;DHT22;6504;53.766;9.626;2023-09-19T05:50:18;15.00;99.90
12872;DHT22;6504;53.766;9.626;2023-09-19T05:52:51;14.90;99.90
12872;DHT22;6504;53.766;9.626;2023-09-19T05:55:21;14.90;99.90
12872;DHT22;6504;53.766;9.626;2023-09-19T05:57:52;15.00;99.90
12872;DHT22;6504;53.766;9.626;2023-09-19T06:00:20;15.00;99.90
12872;DHT22;6504;53.766;9.626;2023-09-19T06:02:51;15.00;99.90
12872;DHT22;6504;53.766;9.626;2023-09-19T06:05:20;15.00;99.90
12872;DHT22;6504;53.766;9.626;2023-09-19T06:07:48;15.00;99.90
12872;DHT22;6504;53.766;9.626;2023-09-19T06:10:17;15.00;99.90
12872;DHT22;6504;53.766;9.626;2023-09-19T06:12:49;15.00;99.90
12872;DHT22;6504;53.766;9.626;2023-09-19T06:15:17;15.00;99.90
12872;DHT22;6504;53.766;9.626;2023-09-19T06:17:48;15.00;99.90
12872;DHT22;6504;53.766;9.626;2023-09-19T06:20:17;15.00;99.90
12872;DHT22;6504;53.766;9.626;2023-09-19T06:22:46;15.00;99.90
12872;DHT22;6504;53.766;9.626;2023-09-19T06:25:16;15.00;99.90
12872;DHT22;6504;53.766;9.626;2023-09-19T06:27:49;15.00;99.90
12872;DHT22;6504;53.766;9.626;2023-09-19T06:30:19;15.00;99.90
12872;DHT22;6504;53.766;9.626;2023-09-19T06:32:48;15.00;99.90
12872;DHT22;6504;53.766;9.626;2023-09-19T06:35:16;15.00;99.90
12872;DHT22;6504;53.766;9.626;2023-09-19T06:37:45;15.00;99.90
12872;DHT22;6504;53.766;9.626;2023-09-19T06:40:15;15.00;99.90
12872;DHT22;6504;53.766;9.626;2023-09-19T06:42:45;15.00;99.90
12872;DHT22;6504;53.766;9.626;2023-09-19T06:45:15;15.00;99.90
12872;DHT22;6504;53.766;9.626;2023-09-19T06:47:46;15.00;99.90
12872;DHT22;6504;53.766;9.626;2023-09-19T06:50:17;15.00;99.90
12872;DHT22;6504;53.766;9.626;2023-09-19T06:52:46;15.00;99.90
12872;DHT22;6504;53.766;9.626;2023-09-19T06:55:17;15.00;99.90
12872;DHT22;6504;53.766;9.626;2023-09-19T06:57:47;15.00;99.90
12872;DHT22;6504;53.766;9.626;2023-09-19T07:00:17;15.00;99.90
12872;DHT22;6504;53.766;9.626;2023-09-19T07:02:55;15.10;99.90
12872;DHT22;6504;53.766;9.626;2023-09-19T07:05:24;15.00;99.90
12872;DHT22;6504;53.766;9.626;2023-09-19T07:07:52;15.10;99.90
12872;DHT22;6504;53.766;9.626;2023-09-19T07:10:21;15.10;99.90
12872;DHT22;6504;53.766;9.626;2023-09-19T07:12:56;15.10;99.90
12872;DHT22;6504;53.766;9.626;2023-09-19T07:15:27;15.10;99.90
12872;DHT22;6504;53.766;9.626;2023-09-19T07:17:55;15.20;99.90
12872;DHT22;6504;53.766;9.626;2023-09-19T07:20:24;15.20;99.90
12872;DHT22;6504;53.766;9.626;2023-09-19T07:22:54;15.20;99.90
12872;DHT22;6504;53.766;9.626;2023-09-19T07:25:22;15.20;99.90
12872;DHT22;6504;53.766;9.626;2023-09-19T07:27:51;15.20;99.90
12872;DHT22;6504;53.766;9.626;2023-09-19T07:30:19;15.30;99.90
12872;DHT22;6504;53.766;9.626;2023-09-19T07:32:48;15.30;99.90
12872;DHT22;6504;53.766;9.626;2023-09-19T07:35:17;15.30;99.90
12872;DHT22;6504;53.766;9.626;2023-09-19T07:37:46;15.30;99.90
12872;DHT22;6504;53.766;9.626;2023-09-19T07:40:18;15.30;99.90
12872;DHT22;6504;53.766;9.626;2023-09-19T07:42:47;15.30;99.90
12872;DHT22;6504;53.766;9.626;2023-09-19T07:45:16;15.30;99.90
12872;DHT22;6504;53.766;9.626;2023-09-19T07:47:45;15.30;99.90
12872;DHT22;6504;53.766;9.626;2023-09-19T07:50:15;15.40;99.90
12872;DHT22;6504;53.766;9.626;2023-09-19T07:52:45;15.40;99.90
12872;DHT22;6504;53.766;9.626;2023-09-19T07:55:14;15.40;99.90
12872;DHT22;6504;53.766;9.626;2023-09-19T07:57:44;15.40;99.90
12872;DHT22;6504;53.766;9.626;2023-09-19T08:00:13;15.40;99.90
12872;DHT22;6504;53.766;9.626;2023-09-19T08:02:42;15.40;99.90
12872;DHT22;6504;53.766;9.626;2023-09-19T08:05:13;15.40;99.90
12872;DHT22;6504;53.766;9.626;2023-09-19T08:07:45;15.50;99.90
12872;DHT22;6504;53.766;9.626;2023-09-19T08:10:15;15.50;99.90
12872;DHT22;6504;53.766;9.626;2023-09-19T08:12:47;15.60;99.90
12872;DHT22;6504;53.766;9.626;2023-09-19T08:15:17;15.60;99.90
12872;DHT22;6504;53.766;9.626;2023-09-19T08:17:46;15.60;99.90
12872;DHT22;6504;53.766;9.626;2023-09-19T08:20:14;15.60;99.90
12872;DHT22;6504;53.766;9.626;2023-09-19T08:22:47;15.60;99.90
12872;DHT22;6504;53.766;9.626;2023-09-19T08:25:16;15.60;99.90
12872;DHT22;6504;53.766;9.626;2023-09-19T08:27:45;15.60;99.90
12872;DHT22;6504;53.766;9.626;2023-09-19T08:30:16;15.60;99.90
12872;DHT22;6504;53.766;9.626;2023-09-19T08:32:47;15.60;99.90
12872;DHT22;6504;53.766;9.626;2023-09-19T08:35:15;15.60;99.90
12872;DHT22;6504;53.766;9.626;2023-09-19T08:37:43;15.60;99.90
12872;DHT22;6504;53.766;9.626;2023-09-19T08:40:14;15.60;99.90
12872;DHT22;6504;53.766;9.626;2023-09-19T08:42:49;15.60;99.90
12872;DHT22;6504;53.766;9.626;2023-09-19T08:45:17;15.60;99.90
12872;DHT22;6504;53.766;9.626;2023-09-19T08:47:53;15.60;99.90
12872;DHT22;6504;53.766;9.626;2023-09-19T08:50:28;15.60;99.90
12872;DHT22;6504;53.766;9.626;2023-09-19T08:53:00;15.60;99.90
12872;DHT22;6504;53.766;9.626;2023-09-19T08:55:30;15.60;99.90
12872;DHT22;6504;53.766;9.626;2023-09-19T08:58:03;15.60;99.90
12872;DHT22;6504;53.766;9.626;2023-09-19T09:00:35;15.60;99.90
12872;DHT22;6504;53.766;9.626;2023-09-19T09:03:05;15.70;99.90
12872;DHT22;6504;53.766;9.626;2023-09-19T09:05:37;15.70;99.90
12872;DHT22;6504;53.766;9.626;2023-09-19T09:08:07;15.70;99.90
12872;DHT22;6504;53.766;9.626;2023-09-19T09:10:39;15.80;99.90
12872;DHT22;6504;53.766;9.626;2023-09-19T09:13:07;15.80;99.90
12872;DHT22;6504;53.766;9.626;2023-09-19T09:15:37;15.90;99.90
12872;DHT22;6504;53.766;9.626;2023-09-19T09:18:06;15.90;99.90
12872;DHT22;6504;53.766;9.626;2023-09-19T09:20:34;16.00;99.90
12872;DHT22;6504;53.766;9.626;2023-09-19T09:23:02;16.00;99.90
12872;DHT22;6504;53.766;9.626;2023-09-19T09:25:49;16.00;99.90
12872;DHT22;6504;53.766;9.626;2023-09-19T09:28:22;16.10;99.90
12872;DHT22;6504;53.766;9.626;2023-09-19T09:30:51;16.10;99.90
12872;DHT22;6504;53.766;9.626;2023-09-19T09:33:19;16.20;99.90
12872;DHT22;6504;53.766;9.626;2023-09-19T09:35:49;16.20;99.90
12872;DHT22;6504;53.766;9.626;2023-09-19T09:38:20;16.30;99.90
12872;DHT22;6504;53.766;9.626;2023-09-19T09:40:55;16.40;99.90
12872;DHT22;6504;53.766;9.626;2023-09-19T09:43:30;16.40;99.90
12872;DHT22;6504;53.766;9.626;2023-09-19T09:46:12;16.40;99.90
12872;DHT22;6504;53.766;9.626;2023-09-19T09:49:00;16.40;99.90
12872;DHT22;6504;53.766;9.626;2023-09-19T09:52:00;16.50;99.90
12872;DHT22;6504;53.766;9.626;2023-09-19T09:54:36;16.60;99.90
12872;DHT22;6504;53.766;9.626;2023-09-19T09:57:07;16.60;99.90
12872;DHT22;6504;53.766;9.626;2023-09-19T09:59:49;16.70;99.90
12872;DHT22;6504;53.766;9.626;2023-09-19T10:02:19;16.80;99.90
12872;DHT22;6504;53.766;9.626;2023-09-19T10:04:53;16.80;99.90
12872;DHT22;6504;53.766;9.626;2023-09-19T10:07:36;16.80;99.90
12872;DHT22;6504;53.766;9.626;2023-09-19T10:10:10;16.90;99.90
12872;DHT22;6504;53.766;9.626;2023-09-19T10:12:45;16.90;99.90
12872;DHT22;6504;53.766;9.626;2023-09-19T10:15:16;16.90;99.90
12872;DHT22;6504;53.766;9.626;2023-09-19T10:17:47;17.00;99.90
12872;DHT22;6504;53.766;9.626;2023-09-19T10:20:17;17.00;99.90
12872;DHT22;6504;53.766;9.626;2023-09-19T10:22:51;17.00;99.90
12872;DHT22;6504;53.766;9.626;2023-09-19T10:25:26;17.00;99.90
12872;DHT22;6504;53.766;9.626;2023-09-19T10:27:57;17.00;99.90
12872;DHT22;6504;53.766;9.626;2023-09-19T10:30:31;17.00;99.90
12872;DHT22;6504;53.766;9.626;2023-09-19T10:33:02;17.10;99.90
12872;DHT22;6504;53.766;9.626;2023-09-19T10:35:32;17.20;99.90
12872;DHT22;6504;53.766;9.626;2023-09-19T10:38:01;17.30;99.90
12872;DHT22;6504;53.766;9.626;2023-09-19T10:40:30;17.40;99.90
12872;DHT22;6504;53.766;9.626;2023-09-19T10:43:03;17.40;99.90
12872;DHT22;6504;53.766;9.626;2023-09-19T10:45:32;17.50;99.90
12872;DHT22;6504;53.766;9.626;2023-09-19T10:48:01;17.60;99.90
12872;DHT22;6504;53.766;9.626;2023-09-19T10:50:32;17.70;99.90
12872;DHT22;6504;53.766;9.626;2023-09-19T10:53:04;17.70;99.90
12872;DHT22;6504;53.766;9.626;2023-09-19T10:55:36;17.70;99.90
12872;DHT22;6504;53.766;9.626;2023-09-19T10:58:06;17.70;99.90
12872;DHT22;6504;53.766;9.626;2023-09-19T11:00:51;17.70;99.90
12872;DHT22;6504;53.766;9.626;2023-09-19T11:03:22;17.70;99.90
12872;DHT22;6504;53.766;9.626;2023-09-19T11:06:02;17.70;99.90
12872;DHT22;6504;53.766;9.626;2023-09-19T11:08:54;17.70;99.90
12872;DHT22;6504;53.766;9.626;2023-09-19T11:11:49;17.80;99.90
12872;DHT22;6504;53.766;9.626;2023-09-19T11:14:38;17.90;99.90
12872;DHT22;6504;53.766;9.626;2023-09-19T11:17:34;17.90;99.90
12872;DHT22;6504;53.766;9.626;2023-09-19T11:20:30;17.80;99.90
12872;DHT22;6504;53.766;9.626;2023-09-19T11:23:18;17.90;99.90
12872;DHT22;6504;53.766;9.626;2023-09-19T11:25:50;17.80;99.90
12872;DHT22;6504;53.766;9.626;2023-09-19T11:28:35;17.80;99.90
12872;DHT22;6504;53.766;9.626;2023-09-19T11:34:47;17.90;99.90
12872;DHT22;6504;53.766;9.626;2023-09-19T11:40:30;18.10;99.90
12872;DHT22;6504;53.766;9.626;2023-09-19T11:42:59;18.20;99.90
12872;DHT22;6504;53.766;9.626;2023-09-19T11:46:04;18.20;99.90
12872;DHT22;6504;53.766;9.626;2023-09-19T11:48:32;18.30;99.90
12872;DHT22;6504;53.766;9.626;2023-09-19T11:51:14;18.40;99.90
12872;DHT22;6504;53.766;9.626;2023-09-19T11:53:51;18.50;99.90
12872;DHT22;6504;53.766;9.626;2023-09-19T11:56:20;18.50;99.90
12872;DHT22;6504;53.766;9.626;2023-09-19T11:58:51;18.60;99.90
12872;DHT22;6504;53.766;9.626;2023-09-19T12:01:24;18.60;99.90
12872;DHT22;6504;53.766;9.626;2023-09-19T12:03:57;18.70;99.90
12872;DHT22;6504;53.766;9.626;2023-09-19T12:06:29;18.70;99.90
12872;DHT22;6504;53.766;9.626;2023-09-19T12:08:58;18.60;99.90
12872;DHT22;6504;53.766;9.626;2023-09-19T12:11:33;18.70;99.90
12872;DHT22;6504;53.766;9.626;2023-09-19T12:14:02;18.60;99.90
12872;DHT22;6504;53.766;9.626;2023-09-19T12:16:31;18.70;99.90
12872;DHT22;6504;53.766;9.626;2023-09-19T12:19:17;18.70;99.90
12872;DHT22;6504;53.766;9.626;2023-09-19T12:21:56;18.70;99.90
12872;DHT22;6504;53.766;9.626;2023-09-19T12:24:27;18.70;99.90
12872;DHT22;6504;53.766;9.626;2023-09-19T12:27:01;18.70;99.90
12872;DHT22;6504;53.766;9.626;2023-09-19T12:29:32;18.70;99.90
12872;DHT22;6504;53.766;9.626;2023-09-19T12:32:09;18.70;99.90
12872;DHT22;6504;53.766;9.626;2023-09-19T12:34:37;18.80;99.90
12872;DHT22;6504;53.766;9.626;2023-09-19T12:37:12;18.70;99.90
12872;DHT22;6504;53.766;9.626;2023-09-19T12:39:44;18.80;99.90
12872;DHT22;6504;53.766;9.626;2023-09-19T12:42:16;18.80;99.90
12872;DHT22;6504;53.766;9.626;2023-09-19T12:44:47;18.90;99.90
12872;DHT22;6504;53.766;9.626;2023-09-19T12:47:17;18.90;99.90
12872;DHT22;6504;53.766;9.626;2023-09-19T12:50:09;18.90;99.90
12872;DHT22;6504;53.766;9.626;2023-09-19T12:52:47;18.90;99.90
12872;DHT22;6504;53.766;9.626;2023-09-19T12:55:21;18.90;99.90
12872;DHT22;6504;53.766;9.626;2023-09-19T12:58:00;19.00;99.90
12872;DHT22;6504;53.766;9.626;2023-09-19T13:00:33;19.00;99.90
12872;DHT22;6504;53.766;9.626;2023-09-19T13:03:12;19.00;99.90
12872;DHT22;6504;53.766;9.626;2023-09-19T13:05:50;19.00;99.90
12872;DHT22;6504;53.766;9.626;2023-09-19T13:08:21;19.10;99.90
12872;DHT22;6504;53.766;9.626;2023-09-19T13:11:07;19.10;99.90
12872;DHT22;6504;53.766;9.626;2023-09-19T13:13:39;19.10;99.90
12872;DHT22;6504;53.766;9.626;2023-09-19T13:16:09;19.10;99.90
12872;DHT22;6504;53.766;9.626;2023-09-19T13:18:45;19.20;99.90
12872;DHT22;6504;53.766;9.626;2023-09-19T13:21:14;19.20;99.90
12872;DHT22;6504;53.766;9.626;2023-09-19T13:23:55;19.30;99.90
12872;DHT22;6504;53.766;9.626;2023-09-19T13:26:26;19.40;99.90
12872;DHT22;6504;53.766;9.626;2023-09-19T13:28:55;19.40;99.90
12872;DHT22;6504;53.766;9.626;2023-09-19T13:31:23;19.40;99.90
12872;DHT22;6504;53.766;9.626;2023-09-19T13:33:52;19.50;99.90
12872;DHT22;6504;53.766;9.626;2023-09-19T13:36:20;19.50;99.90
12872;DHT22;6504;53.766;9.626;2023-09-19T13:38:48;19.50;99.90
12872;DHT22;6504;53.766;9.626;2023-09-19T13:41:17;19.60;99.90
12872;DHT22;6504;53.766;9.626;2023-09-19T13:43:45;19.60;99.90
12872;DHT22;6504;53.766;9.626;2023-09-19T13:46:16;19.60;99.90
12872;DHT22;6504;53.766;9.626;2023-09-19T13:48:52;19.70;99.90
12872;DHT22;6504;53.766;9.626;2023-09-19T13:51:22;19.70;99.90
12872;DHT22;6504;53.766;9.626;2023-09-19T13:53:50;19.70;99.90
12872;DHT22;6504;53.766;9.626;2023-09-19T13:56:20;19.70;99.90
12872;DHT22;6504;53.766;9.626;2023-09-19T13:58:48;19.70;99.90
12872;DHT22;6504;53.766;9.626;2023-09-19T14:01:16;19.70;99.90
12872;DHT22;6504;53.766;9.626;2023-09-19T14:03:44;19.70;99.90
12872;DHT22;6504;53.766;9.626;2023-09-19T14:06:16;19.70;99.90
12872;DHT22;6504;53.766;9.626;2023-09-19T14:08:45;19.60;99.90
12872;DHT22;6504;53.766;9.626;2023-09-19T14:11:14;19.70;99.90
12872;DHT22;6504;53.766;9.626;2023-09-19T14:13:44;19.70;99.90
12872;DHT22;6504;53.766;9.626;2023-09-19T14:16:16;19.70;99.90
12872;DHT22;6504;53.766;9.626;2023-09-19T14:18:45;19.60;99.90
12872;DHT22;6504;53.766;9.626;2023-09-19T14:21:13;19.50;99.90
12872;DHT22;6504;53.766;9.626;2023-09-19T14:23:42;19.50;99.90
12872;DHT22;6504;53.766;9.626;2023-09-19T14:26:10;19.40;99.90
12872;DHT22;6504;53.766;9.626;2023-09-19T14:28:38;19.30;99.90
12872;DHT22;6504;53.766;9.626;2023-09-19T14:31:09;19.30;99.90
12872;DHT22;6504;53.766;9.626;2023-09-19T14:33:38;19.10;99.90
12872;DHT22;6504;53.766;9.626;2023-09-19T14:36:08;19.10;99.90
12872;DHT22;6504;53.766;9.626;2023-09-19T14:38:38;19.00;99.90
12872;DHT22;6504;53.766;9.626;2023-09-19T14:41:07;18.90;99.90
12872;DHT22;6504;53.766;9.626;2023-09-19T14:43:35;18.90;99.90
12872;DHT22;6504;53.766;9.626;2023-09-19T14:46:04;18.80;99.90
12872;DHT22;6504;53.766;9.626;2023-09-19T14:48:36;18.80;99.90
12872;DHT22;6504;53.766;9.626;2023-09-19T14:51:05;18.70;99.90
12872;DHT22;6504;53.766;9.626;2023-09-19T14:53:36;18.70;99.90
12872;DHT22;6504;53.766;9.626;2023-09-19T14:56:08;18.60;99.90
12872;DHT22;6504;53.766;9.626;2023-09-19T14:58:37;18.60;99.90
12872;DHT22;6504;53.766;9.626;2023-09-19T15:01:08;18.60;99.90
12872;DHT22;6504;53.766;9.626;2023-09-19T15:03:39;18.60;99.90
12872;DHT22;6504;53.766;9.626;2023-09-19T15:06:10;18.60;99.90
12872;DHT22;6504;53.766;9.626;2023-09-19T15:08:42;18.50;99.90
12872;DHT22;6504;53.766;9.626;2023-09-19T15:11:12;18.50;99.90
12872;DHT22;6504;53.766;9.626;2023-09-19T15:13:44;18.50;99.90
12872;DHT22;6504;53.766;9.626;2023-09-19T15:16:12;18.40;99.90
12872;DHT22;6504;53.766;9.626;2023-09-19T15:18:43;18.40;99.90
12872;DHT22;6504;53.766;9.626;2023-09-19T15:21:14;18.30;99.90
12872;DHT22;6504;53.766;9.626;2023-09-19T15:23:43;18.30;99.90
12872;DHT22;6504;53.766;9.626;2023-09-19T15:26:13;18.20;99.90
12872;DHT22;6504;53.766;9.626;2023-09-19T15:28:44;18.20;99.90
12872;DHT22;6504;53.766;9.626;2023-09-19T15:31:13;18.10;99.90
12872;DHT22;6504;53.766;9.626;2023-09-19T15:33:42;18.10;99.90
12872;DHT22;6504;53.766;9.626;2023-09-19T15:36:11;18.00;99.90
12872;DHT22;6504;53.766;9.626;2023-09-19T15:38:58;18.00;99.90
12872;DHT22;6504;53.766;9.626;2023-09-19T15:41:27;17.90;99.90
12872;DHT22;6504;53.766;9.626;2023-09-19T15:43:57;17.90;99.90
12872;DHT22;6504;53.766;9.626;2023-09-19T15:46:28;17.90;99.90
12872;DHT22;6504;53.766;9.626;2023-09-19T15:48:58;17.90;99.90
12872;DHT22;6504;53.766;9.626;2023-09-19T15:51:27;17.90;99.90
12872;DHT22;6504;53.766;9.626;2023-09-19T15:53:56;17.90;99.90
12872;DHT22;6504;53.766;9.626;2023-09-19T15:56:27;17.80;99.90
12872;DHT22;6504;53.766;9.626;2023-09-19T15:58:55;17.90;99.90
12872;DHT22;6504;53.766;9.626;2023-09-19T16:01:23;17.90;99.90
12872;DHT22;6504;53.766;9.626;2023-09-19T16:03:53;17.90;99.90
12872;DHT22;6504;53.766;9.626;2023-09-19T16:06:25;17.90;99.90
12872;DHT22;6504;53.766;9.626;2023-09-19T16:08:54;17.80;99.90
12872;DHT22;6504;53.766;9.626;2023-09-19T16:11:22;17.90;99.90
12872;DHT22;6504;53.766;9.626;2023-09-19T16:13:52;17.80;99.90
12872;DHT22;6504;53.766;9.626;2023-09-19T16:16:21;17.90;99.90
12872;DHT22;6504;53.766;9.626;2023-09-19T16:18:52;17.90;99.90